ASA2060 KPBI-MMUN
Flight info
| Callsign | ASA2060 |
|---|---|
| Flight time | 1h 31m |
| Altitude | 40000 |
| Route | WELLY4 WELLY DCT SWAGS DCT LULLS DCT CANOA UB879 LETIS B879 CUN |
| Aircraft | A332/H-SDE3GHIJ2J3J5M1RVWXY/LB2D1 |
Departure
| Time | 2026-04-22 01:49 |
|---|---|
| Airport | Palm Beach International Airport (KPBI) |
Arrival
| Time | 2026-04-22 03:21 |
|---|---|
| Airport | Cancún International Airport (MMUN) |
| Time | Latitude | Longitude | Altitude | Speed | Heading |
|---|---|---|---|---|---|
| 2026-04-22 01:44 | 26.68210 | -80.10774 | 27 ft | 0 kts | 273° |
| 2026-04-22 01:44 | 26.68210 | -80.10785 | 27 ft | 3 kts | 276° |
| 2026-04-22 01:44 | 26.68225 | -80.10814 | 26 ft | 6 kts | 315° |
| 2026-04-22 01:45 | 26.68272 | -80.10829 | 28 ft | 8 kts | 0° |
| 2026-04-22 01:45 | 26.68313 | -80.10795 | 27 ft | 7 kts | 72° |
| 2026-04-22 01:45 | 26.68316 | -80.10759 | 29 ft | 0 kts | 88° |
| 2026-04-22 01:47 | 26.68317 | -80.10699 | 27 ft | 30 kts | 90° |
| 2026-04-22 01:48 | 26.68314 | -80.10531 | 29 ft | 8 kts | 91° |
| 2026-04-22 01:48 | 26.68310 | -80.10294 | 32 ft | 39 kts | 91° |
| 2026-04-22 01:48 | 26.68291 | -80.10010 | 37 ft | 41 kts | 95° |
| 2026-04-22 01:48 | 26.68264 | -80.09499 | 33 ft | 95 kts | 93° |
| 2026-04-22 01:49 | 26.68218 | -80.08548 | 40 ft | 148 kts | 90° |
| 2026-04-22 01:49 | 26.68129 | -80.07333 | 512 ft | 165 kts | 94° |
| 2026-04-22 01:49 | 26.68125 | -80.06043 | 1335 ft | 166 kts | 79° |
| 2026-04-22 01:49 | 26.68423 | -80.04728 | 2052 ft | 182 kts | 71° |
| 2026-04-22 01:50 | 26.68899 | -80.03455 | 2461 ft | 186 kts | 65° |
| 2026-04-22 01:50 | 26.69541 | -80.02108 | 2966 ft | 212 kts | 63° |
| 2026-04-22 01:50 | 26.70289 | -80.00605 | 3685 ft | 228 kts | 63° |
| 2026-04-22 01:50 | 26.71058 | -79.99018 | 4509 ft | 236 kts | 65° |
| 2026-04-22 01:51 | 26.71587 | -79.97242 | 5209 ft | 248 kts | 73° |
| 2026-04-22 01:51 | 26.72403 | -79.95547 | 5831 ft | 250 kts | 47° |
| 2026-04-22 01:51 | 26.73825 | -79.94437 | 6421 ft | 255 kts | 23° |
| 2026-04-22 01:51 | 26.75608 | -79.94101 | 6810 ft | 268 kts | 352° |
| 2026-04-22 01:52 | 26.77356 | -79.94817 | 7344 ft | 274 kts | 328° |
| 2026-04-22 01:52 | 26.78664 | -79.96349 | 7859 ft | 283 kts | 300° |
| 2026-04-22 01:52 | 26.79159 | -79.98474 | 8419 ft | 288 kts | 269° |
| 2026-04-22 01:52 | 26.78807 | -80.00693 | 8960 ft | 293 kts | 256° |
| 2026-04-22 01:53 | 26.78213 | -80.02881 | 9536 ft | 294 kts | 254° |
| 2026-04-22 01:53 | 26.77598 | -80.05060 | 10181 ft | 295 kts | 254° |
| 2026-04-22 01:53 | 26.76967 | -80.07299 | 10430 ft | 309 kts | 254° |
| 2026-04-22 01:53 | 26.76321 | -80.09651 | 10622 ft | 324 kts | 254° |
| 2026-04-22 01:54 | 26.75657 | -80.12116 | 10802 ft | 338 kts | 255° |
| 2026-04-22 01:54 | 26.74958 | -80.14689 | 11003 ft | 353 kts | 254° |
| 2026-04-22 01:54 | 26.74230 | -80.17366 | 11177 ft | 366 kts | 254° |
| 2026-04-22 01:54 | 26.73493 | -80.20082 | 11458 ft | 370 kts | 254° |
| 2026-04-22 01:55 | 26.72753 | -80.22810 | 11555 ft | 371 kts | 254° |
| 2026-04-22 01:55 | 26.71995 | -80.25602 | 12011 ft | 375 kts | 254° |
| 2026-04-22 01:55 | 26.71235 | -80.28407 | 12465 ft | 379 kts | 254° |
| 2026-04-22 01:55 | 26.70466 | -80.31239 | 12975 ft | 382 kts | 255° |
| 2026-04-22 01:56 | 26.69690 | -80.34091 | 13480 ft | 385 kts | 254° |
| 2026-04-22 01:56 | 26.68910 | -80.36962 | 13989 ft | 387 kts | 255° |
| 2026-04-22 01:56 | 26.68123 | -80.39848 | 14471 ft | 389 kts | 255° |
| 2026-04-22 01:56 | 26.67332 | -80.42746 | 14954 ft | 390 kts | 255° |
| 2026-04-22 01:57 | 26.66538 | -80.45654 | 15404 ft | 392 kts | 255° |
| 2026-04-22 01:57 | 26.65751 | -80.48535 | 15884 ft | 393 kts | 255° |
| 2026-04-22 01:57 | 26.64950 | -80.51460 | 16375 ft | 394 kts | 254° |
| 2026-04-22 01:57 | 26.64144 | -80.54401 | 16808 ft | 397 kts | 254° |
| 2026-04-22 01:58 | 26.63334 | -80.57357 | 17272 ft | 399 kts | 254° |
| 2026-04-22 01:58 | 26.62668 | -80.60361 | 17745 ft | 399 kts | 262° |
| 2026-04-22 01:58 | 26.62350 | -80.63442 | 18168 ft | 400 kts | 266° |
| 2026-04-22 01:58 | 26.62141 | -80.66553 | 18580 ft | 403 kts | 267° |
| 2026-04-22 01:59 | 26.61940 | -80.69682 | 18959 ft | 404 kts | 266° |
| 2026-04-22 01:59 | 26.61379 | -80.72764 | 19334 ft | 408 kts | 253° |
| 2026-04-22 01:59 | 26.60815 | -80.74764 | 19596 ft | 408 kts | 256° |
| 2026-04-22 01:59 | 26.59348 | -80.78626 | 20074 ft | 414 kts | 237° |
| 2026-04-22 02:00 | 26.57413 | -80.81025 | 20448 ft | 419 kts | 225° |
| 2026-04-22 02:00 | 26.55154 | -80.83100 | 20799 ft | 422 kts | 219° |
| 2026-04-22 02:00 | 26.52739 | -80.84984 | 21146 ft | 425 kts | 216° |
| 2026-04-22 02:00 | 26.51090 | -80.86174 | 21378 ft | 427 kts | 216° |
| 2026-04-22 02:01 | 26.48565 | -80.87935 | 21722 ft | 429 kts | 215° |
| 2026-04-22 02:01 | 26.46021 | -80.89692 | 22045 ft | 431 kts | 215° |
| 2026-04-22 02:01 | 26.42651 | -80.92045 | 22496 ft | 432 kts | 216° |
| 2026-04-22 02:01 | 26.40937 | -80.93256 | 22727 ft | 433 kts | 216° |
| 2026-04-22 02:02 | 26.37569 | -80.95663 | 23167 ft | 435 kts | 216° |
| 2026-04-22 02:02 | 26.35025 | -80.97494 | 23492 ft | 436 kts | 216° |
| 2026-04-22 02:02 | 26.33301 | -80.98739 | 23713 ft | 438 kts | 217° |
| 2026-04-22 02:02 | 26.30778 | -81.00562 | 23995 ft | 439 kts | 217° |
| 2026-04-22 02:03 | 26.28205 | -81.02422 | 24229 ft | 441 kts | 217° |
| 2026-04-22 02:03 | 26.25623 | -81.04286 | 24468 ft | 444 kts | 217° |
| 2026-04-22 02:03 | 26.23024 | -81.06161 | 24720 ft | 446 kts | 217° |
| 2026-04-22 02:03 | 26.20416 | -81.08040 | 24972 ft | 448 kts | 217° |
| 2026-04-22 02:04 | 26.14917 | -81.11409 | 25466 ft | 455 kts | 210° |
| 2026-04-22 02:04 | 26.12056 | -81.12943 | 25713 ft | 457 kts | 209° |
| 2026-04-22 02:04 | 26.09168 | -81.14444 | 25957 ft | 459 kts | 208° |
| 2026-04-22 02:05 | 26.06297 | -81.15913 | 26194 ft | 461 kts | 208° |
| 2026-04-22 02:05 | 26.03374 | -81.17401 | 26438 ft | 463 kts | 208° |
| 2026-04-22 02:05 | 26.00438 | -81.18896 | 26674 ft | 465 kts | 208° |
| 2026-04-22 02:05 | 25.97495 | -81.20398 | 26886 ft | 467 kts | 209° |
| 2026-04-22 02:06 | 25.94537 | -81.21911 | 27098 ft | 469 kts | 209° |
| 2026-04-22 02:06 | 25.91570 | -81.23431 | 27338 ft | 470 kts | 209° |
| 2026-04-22 02:06 | 25.88614 | -81.24947 | 27575 ft | 472 kts | 209° |
| 2026-04-22 02:06 | 25.85714 | -81.26433 | 27796 ft | 474 kts | 209° |
| 2026-04-22 02:07 | 25.82715 | -81.27970 | 28022 ft | 476 kts | 209° |
| 2026-04-22 02:07 | 25.79709 | -81.29509 | 28274 ft | 476 kts | 209° |
| 2026-04-22 02:07 | 25.76735 | -81.31032 | 28513 ft | 478 kts | 209° |
| 2026-04-22 02:07 | 25.73711 | -81.32578 | 28730 ft | 480 kts | 209° |
| 2026-04-22 02:08 | 25.70675 | -81.34130 | 28926 ft | 482 kts | 209° |
| 2026-04-22 02:08 | 25.67629 | -81.35687 | 29152 ft | 483 kts | 209° |
| 2026-04-22 02:08 | 25.64574 | -81.37246 | 29369 ft | 484 kts | 209° |
| 2026-04-22 02:08 | 25.61509 | -81.38810 | 29621 ft | 485 kts | 209° |
| 2026-04-22 02:09 | 25.58450 | -81.40369 | 29934 ft | 484 kts | 209° |
| 2026-04-22 02:09 | 25.55395 | -81.41925 | 30264 ft | 483 kts | 209° |
| 2026-04-22 02:09 | 25.52348 | -81.43476 | 30529 ft | 482 kts | 210° |
| 2026-04-22 02:09 | 25.49345 | -81.45004 | 30779 ft | 481 kts | 210° |
| 2026-04-22 02:10 | 25.46309 | -81.46549 | 31055 ft | 480 kts | 210° |
| 2026-04-22 02:10 | 25.43282 | -81.48088 | 31324 ft | 478 kts | 210° |
| 2026-04-22 02:10 | 25.40258 | -81.49625 | 31608 ft | 477 kts | 210° |
| 2026-04-22 02:10 | 25.37246 | -81.51155 | 31848 ft | 476 kts | 211° |
| 2026-04-22 02:11 | 25.34239 | -81.52681 | 32105 ft | 475 kts | 211° |
| 2026-04-22 02:11 | 25.31240 | -81.54204 | 32350 ft | 474 kts | 211° |
| 2026-04-22 02:11 | 25.28247 | -81.55721 | 32583 ft | 473 kts | 211° |
| 2026-04-22 02:11 | 25.25295 | -81.57218 | 32820 ft | 473 kts | 211° |
| 2026-04-22 02:12 | 25.22311 | -81.58730 | 33050 ft | 472 kts | 211° |
| 2026-04-22 02:12 | 25.19329 | -81.60240 | 33282 ft | 471 kts | 211° |
| 2026-04-22 02:12 | 25.16357 | -81.61744 | 33509 ft | 470 kts | 211° |
| 2026-04-22 02:12 | 25.13387 | -81.63246 | 33724 ft | 469 kts | 211° |
| 2026-04-22 02:13 | 25.10424 | -81.64744 | 33934 ft | 468 kts | 212° |
| 2026-04-22 02:13 | 25.07463 | -81.66240 | 34117 ft | 467 kts | 212° |
| 2026-04-22 02:13 | 25.04509 | -81.67731 | 34312 ft | 466 kts | 212° |
| 2026-04-22 02:13 | 25.01563 | -81.69218 | 34466 ft | 466 kts | 212° |
| 2026-04-22 02:14 | 24.98618 | -81.70704 | 34632 ft | 464 kts | 212° |
| 2026-04-22 02:14 | 24.92784 | -81.73646 | 34924 ft | 464 kts | 212° |
| 2026-04-22 02:14 | 24.89855 | -81.75121 | 35096 ft | 463 kts | 212° |
| 2026-04-22 02:15 | 24.86929 | -81.76593 | 35268 ft | 462 kts | 212° |
| 2026-04-22 02:15 | 24.84014 | -81.78060 | 35431 ft | 461 kts | 212° |
| 2026-04-22 02:15 | 24.81096 | -81.79528 | 35608 ft | 460 kts | 212° |
| 2026-04-22 02:15 | 24.78189 | -81.80989 | 35768 ft | 459 kts | 213° |
| 2026-04-22 02:16 | 24.75292 | -81.82443 | 36012 ft | 456 kts | 213° |
| 2026-04-22 02:16 | 24.72410 | -81.83888 | 36196 ft | 455 kts | 213° |
| 2026-04-22 02:16 | 24.69572 | -81.85313 | 36314 ft | 454 kts | 213° |
| 2026-04-22 02:17 | 24.63823 | -81.88198 | 36518 ft | 454 kts | 213° |
| 2026-04-22 02:17 | 24.60951 | -81.89638 | 36625 ft | 454 kts | 213° |
| 2026-04-22 02:17 | 24.58080 | -81.91076 | 36755 ft | 453 kts | 213° |
| 2026-04-22 02:17 | 24.55214 | -81.92516 | 36870 ft | 452 kts | 214° |
| 2026-04-22 02:18 | 24.52482 | -81.94152 | 36969 ft | 443 kts | 221° |
| 2026-04-22 02:18 | 24.47912 | -81.98375 | 37166 ft | 425 kts | 237° |
| 2026-04-22 02:18 | 24.46144 | -82.00931 | 37274 ft | 416 kts | 244° |
| 2026-04-22 02:19 | 24.44728 | -82.03675 | 37360 ft | 412 kts | 248° |
| 2026-04-22 02:19 | 24.42206 | -82.09312 | 37456 ft | 411 kts | 250° |
| 2026-04-22 02:20 | 24.39780 | -82.14998 | 37570 ft | 412 kts | 250° |
| 2026-04-22 02:20 | 24.37328 | -82.20685 | 37688 ft | 413 kts | 250° |
| 2026-04-22 02:21 | 24.34861 | -82.26327 | 37794 ft | 414 kts | 250° |
| 2026-04-22 02:21 | 24.32361 | -82.32011 | 37902 ft | 414 kts | 250° |
| 2026-04-22 02:22 | 24.29854 | -82.37701 | 38006 ft | 415 kts | 250° |
| 2026-04-22 02:22 | 24.27343 | -82.43398 | 38099 ft | 415 kts | 250° |
| 2026-04-22 02:23 | 24.24846 | -82.49055 | 38201 ft | 415 kts | 250° |
| 2026-04-22 02:23 | 24.22331 | -82.54750 | 38308 ft | 415 kts | 250° |
| 2026-04-22 02:24 | 24.19810 | -82.60448 | 38375 ft | 415 kts | 250° |
| 2026-04-22 02:24 | 24.17289 | -82.66140 | 38476 ft | 415 kts | 250° |
| 2026-04-22 02:25 | 24.14765 | -82.71833 | 38461 ft | 418 kts | 250° |
| 2026-04-22 02:25 | 24.13504 | -82.74684 | 38185 ft | 425 kts | 249° |
| 2026-04-22 02:25 | 24.12205 | -82.77618 | 37924 ft | 431 kts | 249° |
| 2026-04-22 02:25 | 24.10892 | -82.80576 | 37647 ft | 433 kts | 249° |
| 2026-04-22 02:26 | 24.09570 | -82.83545 | 37392 ft | 434 kts | 249° |
| 2026-04-22 02:26 | 24.08245 | -82.86520 | 37198 ft | 435 kts | 249° |
| 2026-04-22 02:26 | 24.06920 | -82.89489 | 37178 ft | 434 kts | 249° |
| 2026-04-22 02:27 | 24.04272 | -82.95423 | 37177 ft | 434 kts | 249° |
| 2026-04-22 02:27 | 24.01642 | -83.01317 | 37178 ft | 434 kts | 249° |
| 2026-04-22 02:28 | 23.98558 | -83.07040 | 37180 ft | 441 kts | 241° |
| 2026-04-22 02:28 | 23.94969 | -83.12487 | 37173 ft | 442 kts | 240° |
| 2026-04-22 02:29 | 23.91288 | -83.17872 | 37144 ft | 442 kts | 239° |
| 2026-04-22 02:29 | 23.87598 | -83.23254 | 37176 ft | 442 kts | 239° |
| 2026-04-22 02:30 | 23.83941 | -83.28605 | 37169 ft | 442 kts | 239° |
| 2026-04-22 02:30 | 23.80267 | -83.33990 | 37170 ft | 442 kts | 239° |
| 2026-04-22 02:31 | 23.76591 | -83.39375 | 37169 ft | 442 kts | 239° |
| 2026-04-22 02:31 | 23.72913 | -83.44757 | 37167 ft | 442 kts | 239° |
| 2026-04-22 02:32 | 23.69258 | -83.50100 | 37163 ft | 442 kts | 239° |
| 2026-04-22 02:32 | 23.65573 | -83.55480 | 37164 ft | 442 kts | 239° |
| 2026-04-22 02:33 | 23.61889 | -83.60852 | 37165 ft | 442 kts | 239° |
| 2026-04-22 02:33 | 23.58207 | -83.66213 | 37161 ft | 441 kts | 239° |
| 2026-04-22 02:34 | 23.54525 | -83.71568 | 37164 ft | 442 kts | 239° |
| 2026-04-22 02:34 | 23.50863 | -83.76888 | 37160 ft | 441 kts | 239° |
| 2026-04-22 02:35 | 23.47177 | -83.82238 | 37155 ft | 442 kts | 239° |
| 2026-04-22 02:35 | 23.43490 | -83.87584 | 37156 ft | 442 kts | 239° |
| 2026-04-22 02:36 | 23.39798 | -83.92931 | 37154 ft | 441 kts | 239° |
| 2026-04-22 02:36 | 23.36132 | -83.98235 | 37148 ft | 441 kts | 239° |
| 2026-04-22 02:37 | 23.32439 | -84.03573 | 37150 ft | 441 kts | 239° |
| 2026-04-22 02:37 | 23.28748 | -84.08901 | 37163 ft | 441 kts | 239° |
| 2026-04-22 02:38 | 23.25058 | -84.14223 | 37141 ft | 441 kts | 238° |
| 2026-04-22 02:38 | 23.21365 | -84.19544 | 37142 ft | 441 kts | 238° |
| 2026-04-22 02:39 | 23.17697 | -84.24824 | 37142 ft | 441 kts | 238° |
| 2026-04-22 02:39 | 23.14005 | -84.30132 | 37152 ft | 438 kts | 238° |
| 2026-04-22 02:40 | 23.10313 | -84.35435 | 37150 ft | 441 kts | 238° |
| 2026-04-22 02:40 | 23.06615 | -84.40743 | 37132 ft | 441 kts | 238° |
| 2026-04-22 02:41 | 23.02935 | -84.46017 | 37142 ft | 441 kts | 238° |
| 2026-04-22 02:41 | 22.99246 | -84.51295 | 37137 ft | 431 kts | 238° |
| 2026-04-22 02:42 | 22.95677 | -84.56387 | 37129 ft | 424 kts | 238° |
| 2026-04-22 02:42 | 22.92100 | -84.61513 | 37133 ft | 428 kts | 238° |
| 2026-04-22 02:43 | 22.88497 | -84.66659 | 37129 ft | 423 kts | 239° |
| 2026-04-22 02:43 | 22.84963 | -84.71687 | 37131 ft | 422 kts | 238° |
| 2026-04-22 02:44 | 22.81393 | -84.76785 | 37134 ft | 426 kts | 238° |
| 2026-04-22 02:44 | 22.77805 | -84.81897 | 37131 ft | 428 kts | 238° |
| 2026-04-22 02:45 | 22.74184 | -84.87050 | 37128 ft | 430 kts | 238° |
| 2026-04-22 02:45 | 22.70573 | -84.92190 | 37126 ft | 432 kts | 238° |
| 2026-04-22 02:46 | 22.66932 | -84.97350 | 37126 ft | 431 kts | 238° |
| 2026-04-22 02:46 | 22.63295 | -85.02502 | 37120 ft | 431 kts | 238° |
| 2026-04-22 02:47 | 22.59664 | -85.07658 | 37118 ft | 431 kts | 238° |
| 2026-04-22 02:47 | 22.56060 | -85.12833 | 37119 ft | 431 kts | 238° |
| 2026-04-22 02:48 | 22.52484 | -85.17977 | 37117 ft | 431 kts | 238° |
| 2026-04-22 02:48 | 22.48882 | -85.23151 | 37116 ft | 431 kts | 238° |
| 2026-04-22 02:49 | 22.45276 | -85.28322 | 37116 ft | 431 kts | 238° |
| 2026-04-22 02:49 | 22.41666 | -85.33491 | 37115 ft | 431 kts | 238° |
| 2026-04-22 02:50 | 22.38079 | -85.38621 | 37104 ft | 431 kts | 238° |
| 2026-04-22 02:50 | 22.34465 | -85.43786 | 37107 ft | 431 kts | 238° |
| 2026-04-22 02:51 | 22.30847 | -85.48953 | 37115 ft | 432 kts | 238° |
| 2026-04-22 02:51 | 22.27222 | -85.54123 | 37112 ft | 432 kts | 238° |
| 2026-04-22 02:52 | 22.23598 | -85.59289 | 37114 ft | 432 kts | 238° |
| 2026-04-22 02:52 | 22.20003 | -85.64424 | 37114 ft | 432 kts | 238° |
| 2026-04-22 02:53 | 22.16384 | -85.69594 | 37114 ft | 432 kts | 238° |
| 2026-04-22 02:53 | 22.12765 | -85.74759 | 37111 ft | 432 kts | 238° |
| 2026-04-22 02:54 | 22.09144 | -85.79922 | 37110 ft | 432 kts | 238° |
| 2026-04-22 02:54 | 22.05517 | -85.85088 | 37115 ft | 432 kts | 238° |
| 2026-04-22 02:55 | 22.01902 | -85.90232 | 37083 ft | 434 kts | 238° |
| 2026-04-22 02:55 | 22.00086 | -85.92811 | 36879 ft | 430 kts | 238° |
| 2026-04-22 02:55 | 21.98283 | -85.95370 | 36442 ft | 427 kts | 238° |
| 2026-04-22 02:55 | 21.96374 | -85.97829 | 35975 ft | 430 kts | 231° |
| 2026-04-22 02:56 | 21.94218 | -86.00072 | 35522 ft | 431 kts | 229° |
| 2026-04-22 02:56 | 21.92011 | -86.02248 | 35095 ft | 429 kts | 227° |
| 2026-04-22 02:56 | 21.89783 | -86.04378 | 34688 ft | 428 kts | 227° |
| 2026-04-22 02:56 | 21.87551 | -86.06479 | 34287 ft | 425 kts | 227° |
| 2026-04-22 02:57 | 21.85350 | -86.08536 | 33858 ft | 423 kts | 226° |
| 2026-04-22 02:57 | 21.83131 | -86.10608 | 33368 ft | 422 kts | 226° |
| 2026-04-22 02:57 | 21.80917 | -86.12678 | 32876 ft | 421 kts | 226° |
| 2026-04-22 02:57 | 21.78708 | -86.14748 | 32395 ft | 420 kts | 226° |
| 2026-04-22 02:58 | 21.76509 | -86.16811 | 31930 ft | 419 kts | 226° |
| 2026-04-22 02:58 | 21.74315 | -86.18872 | 31470 ft | 418 kts | 226° |
| 2026-04-22 02:58 | 21.72128 | -86.20926 | 31022 ft | 417 kts | 226° |
| 2026-04-22 02:58 | 21.69948 | -86.22973 | 30582 ft | 416 kts | 226° |
| 2026-04-22 02:59 | 21.67771 | -86.25017 | 30158 ft | 415 kts | 226° |
| 2026-04-22 02:59 | 21.65596 | -86.27057 | 29665 ft | 414 kts | 226° |
| 2026-04-22 02:59 | 21.63462 | -86.29058 | 29241 ft | 411 kts | 226° |
| 2026-04-22 02:59 | 21.61314 | -86.31069 | 28843 ft | 409 kts | 226° |
| 2026-04-22 03:00 | 21.59177 | -86.33071 | 28428 ft | 406 kts | 226° |
| 2026-04-22 03:00 | 21.57054 | -86.35059 | 28030 ft | 404 kts | 226° |
| 2026-04-22 03:00 | 21.54941 | -86.37035 | 27621 ft | 402 kts | 225° |
| 2026-04-22 03:00 | 21.52659 | -86.38776 | 27211 ft | 406 kts | 213° |
| 2026-04-22 03:01 | 21.50127 | -86.40131 | 26819 ft | 406 kts | 210° |
| 2026-04-22 03:01 | 21.47554 | -86.41376 | 26436 ft | 405 kts | 208° |
| 2026-04-22 03:01 | 21.45016 | -86.42567 | 26073 ft | 403 kts | 208° |
| 2026-04-22 03:01 | 21.42451 | -86.43757 | 25697 ft | 401 kts | 208° |
| 2026-04-22 03:02 | 21.39897 | -86.44935 | 25328 ft | 399 kts | 207° |
| 2026-04-22 03:02 | 21.37356 | -86.46105 | 24970 ft | 397 kts | 207° |
| 2026-04-22 03:02 | 21.34823 | -86.47269 | 24604 ft | 395 kts | 207° |
| 2026-04-22 03:02 | 21.32306 | -86.48424 | 24249 ft | 393 kts | 207° |
| 2026-04-22 03:03 | 21.29800 | -86.49573 | 23893 ft | 391 kts | 207° |
| 2026-04-22 03:03 | 21.27308 | -86.50716 | 23510 ft | 389 kts | 207° |
| 2026-04-22 03:03 | 21.24824 | -86.51854 | 23101 ft | 387 kts | 207° |
| 2026-04-22 03:03 | 21.22387 | -86.52970 | 22714 ft | 385 kts | 207° |
| 2026-04-22 03:04 | 21.19933 | -86.54093 | 22323 ft | 382 kts | 207° |
| 2026-04-22 03:04 | 21.17494 | -86.55210 | 21943 ft | 380 kts | 207° |
| 2026-04-22 03:04 | 21.15066 | -86.56321 | 21479 ft | 380 kts | 207° |
| 2026-04-22 03:04 | 21.12629 | -86.57436 | 20987 ft | 381 kts | 206° |
| 2026-04-22 03:05 | 21.10189 | -86.58552 | 20503 ft | 382 kts | 206° |
| 2026-04-22 03:05 | 21.07742 | -86.59671 | 20033 ft | 383 kts | 206° |
| 2026-04-22 03:05 | 21.05289 | -86.60792 | 19572 ft | 383 kts | 206° |
| 2026-04-22 03:05 | 21.02870 | -86.61896 | 19109 ft | 384 kts | 206° |
| 2026-04-22 03:06 | 21.00414 | -86.63017 | 18675 ft | 384 kts | 206° |
| 2026-04-22 03:06 | 20.97959 | -86.64137 | 18197 ft | 384 kts | 205° |
| 2026-04-22 03:06 | 20.95501 | -86.65258 | 17684 ft | 384 kts | 205° |
| 2026-04-22 03:06 | 20.93046 | -86.66378 | 17180 ft | 383 kts | 205° |
| 2026-04-22 03:07 | 20.90597 | -86.67494 | 16743 ft | 381 kts | 205° |
| 2026-04-22 03:07 | 20.88187 | -86.68591 | 16562 ft | 372 kts | 205° |
| 2026-04-22 03:07 | 20.85887 | -86.69749 | 16403 ft | 359 kts | 217° |
| 2026-04-22 03:07 | 20.84159 | -86.71580 | 16164 ft | 346 kts | 240° |
| 2026-04-22 03:08 | 20.83331 | -86.73902 | 15858 ft | 337 kts | 265° |
| 2026-04-22 03:08 | 20.83503 | -86.76357 | 15453 ft | 333 kts | 288° |
| 2026-04-22 03:08 | 20.84655 | -86.78497 | 14903 ft | 336 kts | 315° |
| 2026-04-22 03:08 | 20.86454 | -86.80068 | 14644 ft | 331 kts | 321° |
| 2026-04-22 03:09 | 20.88208 | -86.81651 | 14252 ft | 331 kts | 316° |
| 2026-04-22 03:09 | 20.89810 | -86.83422 | 13829 ft | 331 kts | 311° |
| 2026-04-22 03:09 | 20.91284 | -86.85319 | 13369 ft | 332 kts | 308° |
| 2026-04-22 03:09 | 20.92672 | -86.87283 | 13008 ft | 329 kts | 306° |
| 2026-04-22 03:10 | 20.93998 | -86.89263 | 12636 ft | 327 kts | 305° |
| 2026-04-22 03:10 | 20.95280 | -86.91235 | 12234 ft | 327 kts | 304° |
| 2026-04-22 03:10 | 20.96559 | -86.93237 | 11851 ft | 325 kts | 304° |
| 2026-04-22 03:10 | 20.97825 | -86.95237 | 11485 ft | 324 kts | 304° |
| 2026-04-22 03:11 | 20.99081 | -86.97234 | 11083 ft | 323 kts | 303° |
| 2026-04-22 03:11 | 21.00334 | -86.99231 | 10675 ft | 323 kts | 303° |
| 2026-04-22 03:11 | 21.01590 | -87.01235 | 10221 ft | 325 kts | 303° |
| 2026-04-22 03:11 | 21.02852 | -87.03252 | 9734 ft | 327 kts | 303° |
| 2026-04-22 03:12 | 21.04122 | -87.05283 | 9227 ft | 329 kts | 304° |
| 2026-04-22 03:12 | 21.06680 | -87.09376 | 8218 ft | 332 kts | 304° |
| 2026-04-22 03:12 | 21.07946 | -87.11402 | 7758 ft | 333 kts | 304° |
| 2026-04-22 03:13 | 21.09230 | -87.13463 | 7343 ft | 331 kts | 304° |
| 2026-04-22 03:13 | 21.10487 | -87.15482 | 7190 ft | 320 kts | 304° |
| 2026-04-22 03:13 | 21.11699 | -87.17431 | 7068 ft | 309 kts | 305° |
| 2026-04-22 03:13 | 21.13127 | -87.19068 | 6928 ft | 297 kts | 329° |
| 2026-04-22 03:14 | 21.15034 | -87.19702 | 6784 ft | 285 kts | 1° |
| 2026-04-22 03:14 | 21.16890 | -87.19164 | 6630 ft | 275 kts | 33° |
| 2026-04-22 03:14 | 21.18109 | -87.17681 | 6465 ft | 263 kts | 67° |
| 2026-04-22 03:14 | 21.18359 | -87.15806 | 5970 ft | 262 kts | 100° |
| 2026-04-22 03:15 | 21.17529 | -87.14100 | 5600 ft | 261 kts | 137° |
| 2026-04-22 03:15 | 21.16007 | -87.13115 | 5489 ft | 250 kts | 152° |
| 2026-04-22 03:15 | 21.14622 | -87.12112 | 5279 ft | 234 kts | 138° |
| 2026-04-22 03:15 | 21.13464 | -87.10963 | 5041 ft | 221 kts | 131° |
| 2026-04-22 03:16 | 21.12679 | -87.09611 | 4689 ft | 213 kts | 107° |
| 2026-04-22 03:16 | 21.12349 | -87.08089 | 4369 ft | 205 kts | 99° |
| 2026-04-22 03:16 | 21.12140 | -87.06618 | 4140 ft | 196 kts | 98° |
| 2026-04-22 03:16 | 21.11960 | -87.05217 | 3877 ft | 189 kts | 97° |
| 2026-04-22 03:17 | 21.11789 | -87.03856 | 3645 ft | 181 kts | 97° |
| 2026-04-22 03:17 | 21.11625 | -87.02547 | 3383 ft | 175 kts | 97° |
| 2026-04-22 03:17 | 21.11465 | -87.01259 | 3056 ft | 174 kts | 97° |
| 2026-04-22 03:17 | 21.11214 | -87.00002 | 2710 ft | 173 kts | 109° |
| 2026-04-22 03:18 | 21.10655 | -86.98869 | 2410 ft | 172 kts | 119° |
| 2026-04-22 03:18 | 21.10000 | -86.97801 | 2086 ft | 170 kts | 121° |
| 2026-04-22 03:18 | 21.09350 | -86.96780 | 1950 ft | 160 kts | 120° |
| 2026-04-22 03:18 | 21.08732 | -86.95807 | 1960 ft | 156 kts | 120° |
| 2026-04-22 03:19 | 21.08133 | -86.94858 | 1692 ft | 156 kts | 120° |
| 2026-04-22 03:19 | 21.07532 | -86.93901 | 1331 ft | 153 kts | 121° |
| 2026-04-22 03:19 | 21.06941 | -86.92965 | 1040 ft | 149 kts | 120° |
| 2026-04-22 03:19 | 21.06355 | -86.92041 | 811 ft | 154 kts | 120° |
| 2026-04-22 03:20 | 21.05763 | -86.91080 | 448 ft | 154 kts | 119° |
| 2026-04-22 03:20 | 21.05178 | -86.90120 | 297 ft | 155 kts | 120° |
| 2026-04-22 03:20 | 21.04576 | -86.89182 | 106 ft | 150 kts | 119° |
| 2026-04-22 03:20 | 21.04039 | -86.88304 | 31 ft | 119 kts | 124° |
| 2026-04-22 03:21 | 21.03714 | -86.87791 | 31 ft | 62 kts | 123° |
| 2026-04-22 03:21 | 21.03601 | -86.87494 | 26 ft | 19 kts | 94° |
| 2026-04-22 03:21 | 21.03597 | -86.87434 | 27 ft | 5 kts | 94° |
| 2026-04-22 03:21 | 21.03596 | -86.87396 | 29 ft | 5 kts | 88° |
| 2026-04-22 03:22 | 21.03613 | -86.87362 | 27 ft | 5 kts | 45° |
| 2026-04-22 03:22 | 21.03643 | -86.87335 | 26 ft | 6 kts | 35° |
| 2026-04-22 03:22 | 21.03672 | -86.87303 | 28 ft | 5 kts | 67° |
| 2026-04-22 03:22 | 21.03664 | -86.87269 | 28 ft | 5 kts | 112° |
| 2026-04-22 03:23 | 21.03647 | -86.87237 | 28 ft | 5 kts | 122° |
| 2026-04-22 03:23 | 21.03626 | -86.87202 | 28 ft | 6 kts | 122° |
| 2026-04-22 03:23 | 21.03601 | -86.87158 | 26 ft | 8 kts | 122° |
| 2026-04-22 03:23 | 21.03568 | -86.87104 | 28 ft | 9 kts | 123° |
| 2026-04-22 03:24 | 21.03528 | -86.87043 | 23 ft | 11 kts | 127° |
| 2026-04-22 03:24 | 21.03491 | -86.86968 | 26 ft | 12 kts | 101° |
| 2026-04-22 03:24 | 21.03528 | -86.86918 | 26 ft | 9 kts | 30° |
| 2026-04-22 03:24 | 21.03647 | -86.87236 | 29 ft | 5 kts | 122° |
| 2026-04-22 03:25 | 21.04865 | -86.89629 | 181 ft | 153 kts | 121° |
| 2026-04-22 03:25 | 21.04278 | -86.88707 | 31 ft | 144 kts | 120° |
| 2026-04-22 03:25 | 21.05134 | -86.90050 | 273 ft | 154 kts | 120° |
| 2026-04-22 03:25 | 21.04534 | -86.89115 | 98 ft | 150 kts | 119° |
| 2026-04-22 03:26 | 21.04006 | -86.88252 | 28 ft | 114 kts | 123° |
| 2026-04-22 03:26 | 21.03697 | -86.87763 | 29 ft | 61 kts | 123° |